Belvidere, NC (27919)

2:08 AM EDT on September 21, 2014 (GMT -0400)
North Light Farms | Change Station
CLOSE
Current Station
Personal Weather Station
Location: Hertford, NC
Elevation: 20 ft
Nearby Weather Stations

Elev 20 ft 36.21 °N, 76.34 °W | Updated 2 seconds ago

Mostly Cloudy
Mostly Cloudy
69.6 °F
Feels Like 69.6 °F
N
3.0
Wind Variable Wind from NNE
Gusts 4.0 mph

Today
High -- | Low -- °F
--% Chance of Precip.
Yesterday
High -- | Low -- °F
Precip. -- in
6:53 AM 7:04 PM
Waning Crescent, 8% visible
Pressure 29.91 in
Visibility 10.0 miles
Clouds Clear
Dew Point 69 °F
Humidity 97%
Rainfall 0.00 in
Snow Depth Not available.
UV 0 out of 12
Pollen 5.40 out of 12
Air Quality Not available.
Flu Activity Not available.
METAR KECG 210554Z AUTO 36007KT 10SM CLR 22/21 A2991 RMK AO2 RAB10E23 SLP129 P0000 60004 T02220206 10228 20217 56020 TSNO

More Conditions Fewer Conditions

Pressure 29.91 in
Visibility 10.0 miles
Clouds Clear
Dew Point 69 °F
Humidity 97%
Rainfall 0.00 in
Snow Depth Not available.
UV 0 out of 12
Pollen 5.40 out of 12
Air Quality Not available.
Flu Activity Not available.
METAR KECG 210554Z AUTO 36007KT 10SM CLR 22/21 A2991 RMK AO2 RAB10E23 SLP129 P0000 60004 T02220206 10228 20217 56020 TSNO

More Conditions Fewer Conditions

10-Day Weather Forecast

Almanac

Astronomy

Sep. 21, 2014 Rise Set
Actual Time 6:53 AM EDT 7:04 PM EDT
Civil Twilight 6:27 AM EDT 7:30 PM EDT
Nautical Twilight 5:57 AM EDT 8:00 PM EDT
Astronomical Twilight 5:26 AM EDT 8:30 PM EDT
Moon 4:28 AM EDT 5:36 PM EDT
Length of Visible Light 13h 02m
Length of Day
12h 11m
Tomorrow will be 2m 17s shorter.
Waning Crescent, 8% of the Moon is Illuminated
Today
Waning Crescent
Sep 24
New
Oct 1
First Quarter
Oct 8
Full
Oct 15
Last Quarter

Today's Extremes

State Highs State Lows

Community

WunderPhotos

Upload Photos

1,755,098 photos uploaded!

Nearby

Snow Depth

Station Depth Elevation
No new snow has been reported.

Earthquake Activity

City Distance Mag. Time & Date
No recent earthquake activity has been reported nearby.
Minimum magnitude displayed is 2.5.

Coastal Water Temperatures

Place Temperature
Oregon Inlet Marina, NC 73.0 °F
Duck Pier, NC 73.9 °F
Hatteras, NC 75.0 °F
Money Point, VA 79.0 °F
Sewells Point, VA 75.0 °F
Chesapeake Bay Bridge Tunnel, VA 75.0 °F

Nearby Weather Stations